Time;durP1;ratioP1;P1;durP2;ratioP2;P2;SDS_P1;SDS_P2;PMS_P1;PMS_P2;Temp;Humidity;BMP_temperature;BMP_pressure;BME280_temperature;BME280_humidity;BME280_pressure;Samples;Min_cycle;Max_cycle;Signal;HPM_P1;HPM_P2
2021/12/13 00:03:18;;;;;;;31.20;29.38;;;;;;;11.41;96.78;102222.91;10522452;28;20261;-80
2021/12/13 00:08:28;;;;;;;29.40;27.90;;;;;;;11.64;97.50;102260.97;10527776;28;20256;-80
2021/12/13 00:13:37;;;;;;;29.17;27.48;;;;;;;11.64;97.33;102269.00;10524150;28;20684;-80
2021/12/13 00:18:43;;;;;;;28.05;26.70;;;;;;;11.42;96.18;102231.84;10523993;28;20279;-80
2021/12/13 00:23:50;;;;;;;26.17;24.83;;;;;;;11.45;96.00;102228.97;10526249;28;20205;-80
2021/12/13 00:28:51;;;;;;;24.80;23.40;;;;;;;11.63;95.74;102275.31;10527648;28;20275;-81
2021/12/13 00:34:06;;;;;;;23.70;22.33;;;;;;;11.61;96.07;102270.03;10525564;28;20817;-80
2021/12/13 00:39:15;;;;;;;24.95;23.48;;;;;;;11.57;95.10;102275.66;10527721;28;20661;-80
2021/12/13 00:44:20;;;;;;;23.88;22.75;;;;;;;11.53;95.25;102266.91;10530828;28;20209;-80
2021/12/13 00:49:27;;;;;;;24.25;22.90;;;;;;;11.35;94.23;102249.13;10522957;28;20274;-80
2021/12/13 00:54:33;;;;;;;24.25;23.02;;;;;;;11.37;94.86;102252.59;10524146;28;20260;-80
2021/12/13 00:59:37;;;;;;;39.73;37.73;;;;;;;11.40;94.70;102252.44;10530338;28;20221;-80
2021/12/13 01:04:56;;;;;;;24.40;23.03;;;;;;;11.48;94.37;102285.88;10535301;28;20267;-80
2021/12/13 01:10:47;;;;;;;24.73;23.43;;;;;;;11.48;94.59;102288.53;10532565;28;20662;-80
2021/12/13 01:15:57;;;;;;;23.55;22.30;;;;;;;10.83;94.00;102189.38;10536235;28;20206;-80
2021/12/13 01:21:11;;;;;;;24.25;22.92;;;;;;;11.44;93.88;102286.13;10533752;28;20337;-80
2021/12/13 01:26:34;;;;;;;23.57;22.27;;;;;;;11.45;93.42;102288.72;10532186;28;20205;-81
2021/12/13 01:31:41;;;;;;;24.47;23.37;;;;;;;11.44;93.60;102288.78;10530219;28;20321;-80
2021/12/13 01:36:48;;;;;;;25.67;23.87;;;;;;;11.27;93.19;102282.50;10530572;28;20232;-80
2021/12/13 01:41:54;;;;;;;26.77;24.93;;;;;;;11.39;93.19;102302.41;10530493;28;20230;-80
2021/12/13 01:47:00;;;;;;;27.33;25.65;;;;;;;11.38;92.82;102298.00;10533653;28;20206;-80
2021/12/13 01:52:02;;;;;;;27.92;26.38;;;;;;;11.27;93.26;102284.31;10530103;28;20218;-80
2021/12/13 01:57:22;;;;;;;29.30;27.60;;;;;;;11.34;92.43;102304.47;10529205;28;20742;-79
2021/12/13 02:02:32;;;;;;;30.00;28.27;;;;;;;11.30;93.29;102303.75;10529789;28;20796;-80
2021/12/13 02:07:42;;;;;;;30.63;28.93;;;;;;;11.32;94.03;102300.13;10527136;28;20943;-80
2021/12/13 02:12:46;;;;;;;30.97;29.17;;;;;;;11.31;93.34;102301.94;10528005;28;20209;-80
2021/12/13 02:17:50;;;;;;;31.00;29.23;;;;;;;11.29;93.40;102304.69;10531046;28;20720;-80
2021/12/13 02:22:56;;;;;;;31.93;29.97;;;;;;;11.14;93.56;102286.75;10527650;28;20615;-79
2021/12/13 02:28:02;;;;;;;33.80;31.57;;;;;;;11.29;93.78;102314.53;10530605;28;20221;-80
2021/12/13 02:33:05;;;;;;;32.83;30.93;;;;;;;11.23;93.49;102305.00;10529316;28;20268;-81
2021/12/13 02:38:11;;;;;;;34.23;32.23;;;;;;;10.82;93.41;102241.09;10524020;28;20234;-80
2021/12/13 02:43:15;;;;;;;33.80;31.70;;;;;;;11.15;94.25;102300.97;10528081;28;20236;-80
2021/12/13 02:48:34;;;;;;;33.03;31.07;;;;;;;11.25;93.76;102315.63;10529089;28;20576;-80
2021/12/13 02:53:41;;;;;;;30.53;28.83;;;;;;;11.25;93.88;102320.97;10525780;28;20215;-80
2021/12/13 02:58:43;;;;;;;31.93;30.13;;;;;;;11.24;93.85;102308.53;10530456;28;20272;-80
2021/12/13 03:03:48;;;;;;;30.70;29.00;;;;;;;11.21;92.92;102308.72;10527924;28;20234;-81
2021/12/13 03:08:56;;;;;;;33.77;31.87;;;;;;;11.21;93.51;102306.03;10521815;28;20301;-80
2021/12/13 03:14:01;;;;;;;31.73;29.83;;;;;;;11.17;92.72;102299.97;10531061;28;20205;-80
2021/12/13 03:19:10;;;;;;;31.77;29.97;;;;;;;11.18;93.44;102312.38;10526558;28;20229;-83
2021/12/13 03:24:26;;;;;;;31.10;29.23;;;;;;;10.85;93.27;102254.31;10524368;28;20202;-79
2021/12/13 03:29:43;;;;;;;31.47;29.73;;;;;;;11.18;93.01;102303.50;10538135;28;20279;-83
2021/12/13 03:35:06;;;;;;;31.03;29.13;;;;;;;10.89;92.86;102258.56;10536396;28;20217;-83
2021/12/13 03:40:13;;;;;;;29.77;27.97;;;;;;;10.54;93.20;102219.38;10529816;28;20241;-83
2021/12/13 03:45:19;;;;;;;30.40;28.53;;;;;;;11.14;93.04;102293.91;10534168;28;20206;-83
2021/12/13 03:50:23;;;;;;;29.63;28.13;;;;;;;11.09;93.10;102292.34;10533198;28;20198;-83
2021/12/13 03:55:29;;;;;;;28.83;27.20;;;;;;;10.94;92.86;102268.16;10528629;28;20206;-83
2021/12/13 04:00:35;;;;;;;27.80;26.30;;;;;;;10.56;92.76;102225.50;10530657;28;20229;-82
2021/12/13 04:05:38;;;;;;;28.97;27.47;;;;;;;10.99;92.91;102296.41;10532983;28;20218;-83
2021/12/13 04:10:43;;;;;;;27.57;26.03;;;;;;;11.07;92.45;102296.88;10530644;28;20210;-83
2021/12/13 04:15:59;;;;;;;30.00;28.23;;;;;;;11.08;92.86;102290.59;10534503;28;20198;-83
2021/12/13 04:21:05;;;;;;;27.20;25.60;;;;;;;11.08;92.09;102284.38;10531085;28;20226;-83
2021/12/13 04:26:11;;;;;;;27.47;25.97;;;;;;;11.07;92.08;102291.53;10529242;28;20210;-82
2021/12/13 04:31:16;;;;;;;26.83;25.23;;;;;;;11.08;91.52;102300.44;10534296;28;20241;-83
2021/12/13 04:36:23;;;;;;;26.27;25.07;;;;;;;10.70;91.68;102242.59;10530134;28;20212;-83
2021/12/13 04:41:32;;;;;;;26.93;25.03;;;;;;;11.06;91.41;102299.66;10529972;28;20237;-83
2021/12/13 04:46:35;;;;;;;25.70;24.20;;;;;;;11.04;91.34;102297.03;10528446;28;20210;-84
2021/12/13 04:51:41;;;;;;;26.60;25.10;;;;;;;11.01;91.85;102290.97;10527003;28;20605;-83
2021/12/13 04:56:46;;;;;;;25.43;24.10;;;;;;;10.93;91.18;102269.13;10523603;28;20231;-83
2021/12/13 05:01:53;;;;;;;25.17;23.87;;;;;;;11.04;91.69;102293.50;10530975;28;20233;-84
2021/12/13 05:06:55;;;;;;;24.77;23.23;;;;;;;11.05;91.03;102298.75;10530396;28;20563;-83
2021/12/13 05:12:09;;;;;;;26.50;25.00;;;;;;;10.83;90.65;102276.72;10525191;28;20670;-83
2021/12/13 05:17:17;;;;;;;25.03;23.57;;;;;;;10.99;90.79;102309.78;10528779;28;20217;-83
2021/12/13 05:22:20;;;;;;;26.63;25.07;;;;;;;10.98;90.73;102309.84;10527729;28;20227;-83
2021/12/13 05:27:31;;;;;;;25.83;24.17;;;;;;;10.95;90.57;102305.53;10525858;28;20570;-83
2021/12/13 05:32:37;;;;;;;26.57;24.87;;;;;;;10.94;90.24;102302.91;10527646;28;20218;-83
2021/12/13 05:37:40;;;;;;;26.33;24.80;;;;;;;10.92;90.54;102313.69;10532426;28;20568;-82
2021/12/13 05:42:46;;;;;;;27.63;25.93;;;;;;;10.26;89.97;102185.97;10527190;28;20222;-83
2021/12/13 05:47:57;;;;;;;25.33;23.90;;;;;;;10.94;90.13;102301.09;10534374;28;20225;-83
2021/12/13 05:53:05;;;;;;;26.37;24.67;;;;;;;9.70;89.87;102107.66;10531823;28;20737;-84
2021/12/13 05:58:11;;;;;;;28.10;26.30;;;;;;;10.43;89.84;102234.09;10541274;28;20198;-84
2021/12/13 06:03:17;;;;;;;52.90;50.07;;;;;;;10.91;89.95;102315.50;10541324;28;20241;-83
2021/12/13 06:08:22;;;;;;;27.57;26.03;;;;;;;10.90;89.93;102316.41;10538193;28;20206;-84
2021/12/13 06:13:59;;;;;;;30.83;28.80;;;;;;;10.93;89.70;102314.56;10537570;28;20225;-83
2021/12/13 06:19:04;;;;;;;29.77;27.63;;;;;;;10.94;89.90;102311.78;10536912;28;20230;-83
2021/12/13 06:24:06;;;;;;;31.73;29.63;;;;;;;10.58;89.75;102261.03;10535386;28;20234;-83
2021/12/13 06:29:09;;;;;;;31.97;30.07;;;;;;;10.76;89.73;102286.00;10534634;28;20197;-83
2021/12/13 06:34:14;;;;;;;32.50;30.40;;;;;;;10.91;89.87;102326.19;10533665;28;20221;-83
2021/12/13 06:39:18;;;;;;;33.00;30.83;;;;;;;10.97;90.17;102321.50;10533011;28;20664;-84
2021/12/13 06:44:25;;;;;;;32.07;29.97;;;;;;;10.94;90.22;102319.81;10528730;28;20226;-83
2021/12/13 06:49:33;;;;;;;36.33;33.83;;;;;;;10.90;89.71;102315.56;10540394;28;20209;-83
2021/12/13 06:54:39;;;;;;;34.07;31.93;;;;;;;10.09;89.63;102216.13;10531805;28;20217;-83
2021/12/13 06:59:51;;;;;;;34.07;31.57;;;;;;;10.41;90.05;102254.69;10531762;28;20223;-83
2021/12/13 07:05:00;;;;;;;33.07;30.97;;;;;;;10.71;89.98;102310.25;10531131;28;20528;-84
2021/12/13 07:10:07;;;;;;;33.23;30.97;;;;;;;10.91;90.03;102341.38;10532440;28;20226;-83
2021/12/13 07:15:24;;;;;;;32.80;30.63;;;;;;;10.87;90.04;102345.13;10528493;28;20214;-83
2021/12/13 07:20:26;;;;;;;31.60;29.60;;;;;;;10.90;90.48;102348.50;10529949;28;20229;-83
2021/12/13 07:25:37;;;;;;;34.07;31.90;;;;;;;10.89;89.98;102357.47;10524122;28;20203;-83
2021/12/13 07:30:42;;;;;;;33.73;31.43;;;;;;;10.84;89.64;102361.31;10527693;28;20225;-84
2021/12/13 07:35:48;;;;;;;34.13;31.77;;;;;;;10.83;90.07;102372.94;10531526;28;20629;-83
2021/12/13 07:40:53;;;;;;;34.50;32.07;;;;;;;10.67;90.31;102352.28;10527618;28;20331;-84
2021/12/13 07:46:00;;;;;;;35.40;32.90;;;;;;;10.82;90.73;102380.09;10525938;28;20222;-83
2021/12/13 07:51:10;;;;;;;34.50;32.07;;;;;;;10.83;90.49;102387.19;10528411;28;20210;-83
2021/12/13 07:56:19;;;;;;;35.00;32.50;;;;;;;10.57;90.07;102343.00;10529764;28;20206;-84
2021/12/13 08:01:28;;;;;;;34.87;32.57;;;;;;;10.58;89.88;102342.03;10530734;28;20240;-84
2021/12/13 08:06:35;;;;;;;40.10;37.47;;;;;;;10.82;90.40;102376.56;10528271;28;20215;-83
2021/12/13 08:11:41;;;;;;;34.87;32.57;;;;;;;10.80;90.02;102379.31;10530414;28;20209;-83
2021/12/13 08:16:47;;;;;;;34.70;32.40;;;;;;;10.62;90.44;102340.94;10529157;28;20213;-84
2021/12/13 08:21:52;;;;;;;35.90;33.40;;;;;;;10.86;90.50;102376.31;10527954;28;20230;-83
2021/12/13 08:26:59;;;;;;;34.23;32.00;;;;;;;9.98;89.66;102259.34;10526911;28;20217;-83
2021/12/13 08:32:08;;;;;;;35.97;33.37;;;;;;;10.83;89.39;102376.50;10532191;28;20683;-84
2021/12/13 08:37:16;;;;;;;34.57;32.27;;;;;;;10.83;89.73;102383.63;10526442;28;20255;-84
2021/12/13 08:42:21;;;;;;;34.77;32.37;;;;;;;10.26;89.47;102287.44;10527278;28;20237;-84
2021/12/13 08:47:31;;;;;;;34.83;32.33;;;;;;;10.59;89.99;102357.13;10530289;28;20602;-83
2021/12/13 08:52:37;;;;;;;35.80;33.27;;;;;;;10.53;90.12;102338.75;10527713;28;20753;-84
2021/12/13 08:57:47;;;;;;;33.90;31.60;;;;;;;10.84;89.93;102390.72;10527560;28;20220;-83
2021/12/13 09:02:54;;;;;;;33.80;31.53;;;;;;;10.82;89.46;102404.16;10528332;28;20226;-83
2021/12/13 09:07:59;;;;;;;35.67;33.27;;;;;;;10.68;89.79;102395.91;10528478;28;20218;-84
2021/12/13 09:13:01;;;;;;;34.87;32.57;;;;;;;10.51;89.97;102368.19;10529607;28;20218;-83
2021/12/13 09:18:06;;;;;;;34.33;31.93;;;;;;;10.69;90.18;102403.00;10531583;28;20199;-84
2021/12/13 09:23:17;;;;;;;42.87;39.97;;;;;;;10.84;90.18;102438.84;10537991;28;20576;-84
2021/12/13 09:28:22;;;;;;;34.67;32.00;;;;;;;10.86;89.89;102461.00;10549828;28;20213;-84
2021/12/13 09:33:29;;;;;;;37.47;34.87;;;;;;;10.73;90.07;102433.13;10538158;28;20676;-83
2021/12/13 09:38:44;;;;;;;39.43;36.77;;;;;;;10.69;89.49;102441.28;10537037;28;21008;-84
2021/12/13 09:43:50;;;;;;;34.30;31.77;;;;;;;10.95;89.59;102473.94;10535075;28;20247;-84
2021/12/13 09:48:56;;;;;;;34.83;32.13;;;;;;;10.66;90.19;102421.84;10541363;28;20210;-84
2021/12/13 09:54:02;;;;;;;32.97;30.87;;;;;;;10.99;90.19;102483.56;10541534;28;20279;-84
2021/12/13 09:59:12;;;;;;;32.73;30.20;;;;;;;11.03;90.32;102489.63;10540502;28;20279;-83
2021/12/13 10:04:18;;;;;;;34.83;32.07;;;;;;;10.78;89.47;102452.50;10538431;28;20226;-83
2021/12/13 10:09:23;;;;;;;34.97;32.10;;;;;;;11.08;89.96;102479.59;10539743;28;20261;-84
2021/12/13 10:14:31;;;;;;;33.70;31.30;;;;;;;11.10;89.80;102481.25;10537108;28;20217;-84
2021/12/13 10:19:37;;;;;;;32.77;30.50;;;;;;;11.03;89.40;102471.78;10539397;28;20934;-83
2021/12/13 10:24:43;;;;;;;40.17;37.37;;;;;;;11.13;89.35;102484.72;10539806;28;20220;-84
2021/12/13 10:29:48;;;;;;;32.73;30.53;;;;;;;11.15;89.53;102483.72;10537040;28;20194;-83
2021/12/13 10:34:55;;;;;;;31.33;29.03;;;;;;;10.41;88.92;102348.16;10537216;28;20290;-84
2021/12/13 10:40:00;;;;;;;33.73;31.33;;;;;;;10.77;88.79;102407.97;10539391;28;20222;-84
2021/12/13 10:45:06;;;;;;;32.15;29.75;;;;;;;11.20;89.16;102479.00;10538520;28;20316;-83
2021/12/13 10:50:13;;;;;;;31.55;29.27;;;;;;;11.25;89.04;102471.63;10545356;28;20213;-83
2021/12/13 10:55:23;;;;;;;30.93;28.73;;;;;;;11.23;88.47;102473.50;10544599;28;20208;-83
2021/12/13 11:00:29;;;;;;;31.97;29.50;;;;;;;11.25;89.07;102473.44;10541403;28;20766;-84
2021/12/13 11:05:33;;;;;;;33.13;30.63;;;;;;;11.25;88.65;102481.47;10545937;28;20240;-84
2021/12/13 11:10:39;;;;;;;34.47;31.87;;;;;;;11.10;88.93;102446.47;10537913;28;20217;-83
2021/12/13 11:15:44;;;;;;;30.48;28.35;;;;;;;11.37;89.62;102469.28;10541477;28;20206;-84
2021/12/13 11:20:51;;;;;;;29.95;27.85;;;;;;;11.32;88.84;102455.28;10538007;28;20689;-83
2021/12/13 11:25:57;;;;;;;30.40;28.13;;;;;;;11.40;88.43;102463.81;10540415;28;20269;-83
2021/12/13 11:31:08;;;;;;;37.88;35.03;;;;;;;11.44;88.73;102460.03;10538922;28;20222;-83
2021/12/13 11:36:48;;;;;;;29.75;27.55;;;;;;;11.40;87.77;102448.63;10540890;28;20621;-84
2021/12/13 11:42:25;;;;;;;30.20;27.92;;;;;;;11.06;87.18;102404.78;10497252;28;20225;-83
2021/12/13 11:48:04;;;;;;;30.52;28.15;;;;;;;11.43;88.19;102469.88;10513060;28;20198;-84
2021/12/13 11:53:32;;;;;;;30.75;28.27;;;;;;;11.46;87.79;102471.53;10540943;28;20670;-84
2021/12/13 11:58:58;;;;;;;28.73;26.73;;;;;;;11.45;87.69;102459.06;10533256;28;20769;-83
2021/12/13 12:04:45;;;;;;;28.83;26.60;;;;;;;11.48;88.14;102454.44;10538232;28;20306;-84
2021/12/13 12:10:09;;;;;;;29.23;27.03;;;;;;;11.52;87.36;102459.66;10533612;28;20213;-83
2021/12/13 12:15:12;;;;;;;28.40;26.40;;;;;;;11.35;87.91;102431.91;10539152;28;20653;-83
2021/12/13 12:20:17;;;;;;;28.20;26.23;;;;;;;11.20;87.73;102401.44;10544069;28;20313;-83
2021/12/13 12:25:24;;;;;;;28.83;26.80;;;;;;;11.52;87.22;102455.16;10547526;28;20338;-83
2021/12/13 12:30:30;;;;;;;28.63;26.73;;;;;;;11.54;87.39;102458.63;10545012;28;20245;-83
2021/12/13 12:35:38;;;;;;;29.52;27.17;;;;;;;11.54;87.13;102460.44;10537867;28;20234;-84
2021/12/13 12:40:50;;;;;;;27.42;25.52;;;;;;;11.58;87.14;102462.88;10534152;28;20847;-84
2021/12/13 12:45:54;;;;;;;29.10;26.87;;;;;;;11.45;87.01;102438.56;10537723;28;20226;-83
2021/12/13 12:51:00;;;;;;;28.02;26.20;;;;;;;11.55;87.22;102456.84;10545790;28;20209;-83
2021/12/13 12:56:07;;;;;;;91.60;87.20;;;;;;;11.42;85.95;102414.63;10540485;28;20448;-83
2021/12/13 13:01:17;;;;;;;28.40;26.55;;;;;;;11.58;86.78;102454.84;10538353;28;20221;-83
2021/12/13 13:06:23;;;;;;;27.75;25.83;;;;;;;11.59;86.05;102456.59;10541552;28;20688;-83
2021/12/13 13:11:35;;;;;;;26.35;24.55;;;;;;;11.57;86.40;102455.81;10544871;28;20229;-83
2021/12/13 13:16:41;;;;;;;28.15;26.15;;;;;;;11.60;86.24;102450.31;10543095;28;20210;-83
2021/12/13 13:21:45;;;;;;;27.65;25.63;;;;;;;11.46;86.36;102432.25;10550974;28;20317;-83
2021/12/13 13:26:50;;;;;;;26.90;25.10;;;;;;;11.63;86.35;102446.59;10557206;28;20202;-85
2021/12/13 13:31:54;;;;;;;26.38;24.48;;;;;;;11.38;85.39;102415.72;10550825;28;20226;-83
2021/12/13 13:36:59;;;;;;;27.05;25.17;;;;;;;11.54;85.45;102447.91;10551432;28;20206;-83
2021/12/13 13:42:09;;;;;;;26.70;24.90;;;;;;;11.32;86.41;102428.50;10542541;28;20238;-83
2021/12/13 13:47:13;;;;;;;26.80;25.00;;;;;;;11.45;85.90;102454.63;10536624;28;20216;-83
2021/12/13 13:52:25;;;;;;;26.40;24.70;;;;;;;10.24;85.77;102244.78;10549493;28;20195;-83
2021/12/13 13:57:32;;;;;;;35.20;33.10;;;;;;;11.52;85.88;102456.97;10542050;28;20531;-83
2021/12/13 14:02:37;;;;;;;26.92;25.13;;;;;;;11.47;86.21;102452.72;10562343;28;20537;-83
2021/12/13 14:07:42;;;;;;;27.63;25.80;;;;;;;11.28;85.62;102422.44;10554983;28;20194;-83
2021/12/13 14:12:48;;;;;;;26.93;25.23;;;;;;;11.27;86.17;102428.75;10544080;28;20267;-84
2021/12/13 14:17:52;;;;;;;26.63;24.63;;;;;;;11.45;85.76;102453.72;10543606;28;20272;-83
2021/12/13 14:22:58;;;;;;;26.67;24.98;;;;;;;11.44;85.74;102449.31;10540751;28;20226;-83
2021/12/13 14:28:02;;;;;;;27.47;25.67;;;;;;;11.10;85.55;102378.75;10547944;28;20206;-83
2021/12/13 14:33:22;;;;;;;26.95;25.25;;;;;;;11.45;85.75;102446.59;10549770;28;20240;-83
2021/12/13 14:38:27;;;;;;;26.73;25.03;;;;;;;11.15;85.76;102408.84;10556212;28;20202;-83
2021/12/13 14:43:33;;;;;;;25.50;23.57;;;;;;;11.28;85.26;102443.84;10549055;28;20241;-83
2021/12/13 14:48:35;;;;;;;26.57;24.77;;;;;;;11.20;85.44;102446.03;10542982;28;20252;-85
2021/12/13 14:53:39;;;;;;;26.33;24.73;;;;;;;11.17;85.29;102446.19;10541876;28;20206;-84
2021/12/13 14:58:48;;;;;;;26.57;24.77;;;;;;;11.27;86.08;102472.41;10547266;28;20681;-84
2021/12/13 15:03:54;;;;;;;25.90;24.13;;;;;;;11.10;85.26;102461.66;10544115;28;20600;-83
2021/12/13 15:09:06;;;;;;;26.20;24.50;;;;;;;11.09;86.14;102460.81;10560158;28;20205;-82
2021/12/13 15:14:15;;;;;;;25.40;23.70;;;;;;;11.08;86.22;102444.84;10545980;28;20202;-83
2021/12/13 15:19:20;;;;;;;24.73;23.17;;;;;;;11.23;86.27;102478.00;10549524;28;20256;-83
2021/12/13 15:24:22;;;;;;;26.50;24.67;;;;;;;11.02;85.71;102442.41;10540958;28;20217;-83
2021/12/13 15:29:29;;;;;;;25.93;24.23;;;;;;;11.25;86.62;102470.75;10543820;28;20225;-83
2021/12/13 15:34:33;;;;;;;25.90;24.10;;;;;;;11.20;86.18;102476.31;10541840;28;20222;-83
2021/12/13 15:39:35;;;;;;;25.73;24.03;;;;;;;11.18;86.63;102470.19;10528650;28;20713;-83
2021/12/13 15:44:38;;;;;;;26.10;24.57;;;;;;;11.01;86.29;102451.41;10529815;28;20218;-83
2021/12/13 15:49:41;;;;;;;26.17;24.40;;;;;;;10.91;86.32;102438.47;10532944;28;20291;-83
2021/12/13 15:54:46;;;;;;;26.90;24.97;;;;;;;10.95;86.78;102441.00;10521123;28;20214;-84
2021/12/13 15:59:52;;;;;;;25.57;23.97;;;;;;;11.10;86.26;102470.53;10542542;28;20209;-83
2021/12/13 16:04:56;;;;;;;25.60;23.80;;;;;;;10.82;86.08;102433.56;10538212;28;20326;-84
2021/12/13 16:10:00;;;;;;;26.03;24.03;;;;;;;11.07;85.94;102483.19;10527886;28;20222;-84
2021/12/13 16:15:07;;;;;;;25.77;24.00;;;;;;;10.84;86.20;102453.06;10538102;28;20218;-84
2021/12/13 16:20:15;;;;;;;26.33;24.53;;;;;;;10.80;86.21;102450.63;10532018;28;20263;-84
2021/12/13 16:25:24;;;;;;;25.40;23.70;;;;;;;10.98;86.31;102484.50;10530529;28;20270;-84
2021/12/13 16:30:34;;;;;;;25.60;23.90;;;;;;;10.91;85.81;102472.38;10527713;28;20217;-83
2021/12/13 16:35:38;;;;;;;25.50;23.80;;;;;;;10.97;86.29;102473.88;10523663;28;20217;-84
2021/12/13 16:40:43;;;;;;;25.40;23.70;;;;;;;10.95;85.98;102471.28;10524732;28;20234;-83
2021/12/13 16:45:50;;;;;;;24.93;23.10;;;;;;;10.51;86.33;102407.41;10532403;28;20229;-84
2021/12/13 16:50:53;;;;;;;25.03;23.43;;;;;;;10.87;86.80;102462.75;10537122;28;20217;-84
2021/12/13 16:55:55;;;;;;;26.57;24.43;;;;;;;10.81;86.46;102449.66;10536026;28;20213;-83
2021/12/13 17:01:01;;;;;;;25.97;24.13;;;;;;;8.92;85.34;102141.44;10539606;28;20221;-83
2021/12/13 17:06:07;;;;;;;25.47;23.67;;;;;;;10.91;86.14;102483.91;10540943;28;20226;-84
2021/12/13 17:11:17;;;;;;;25.83;24.23;;;;;;;10.62;86.21;102423.78;10540927;28;20700;-83
2021/12/13 17:16:26;;;;;;;26.27;24.53;;;;;;;10.93;87.10;102466.94;10545065;28;20205;-84
2021/12/13 17:21:33;;;;;;;26.03;24.33;;;;;;;10.14;86.23;102323.59;10535378;28;20198;-84
2021/12/13 17:26:45;;;;;;;26.43;24.70;;;;;;;10.94;86.54;102471.34;10538928;28;20221;-84
2021/12/13 17:31:54;;;;;;;25.70;24.10;;;;;;;10.82;86.52;102465.63;10531205;28;20762;-83
2021/12/13 17:36:56;;;;;;;26.60;24.93;;;;;;;10.82;86.52;102462.09;10524524;28;20214;-84
2021/12/13 17:42:00;;;;;;;25.93;24.43;;;;;;;10.61;86.57;102421.22;10527821;28;20241;-83
2021/12/13 17:47:05;;;;;;;26.70;25.00;;;;;;;10.79;86.76;102456.88;10534656;28;20202;-83
2021/12/13 17:52:07;;;;;;;26.57;24.70;;;;;;;10.79;86.82;102462.22;10532086;28;20218;-83
2021/12/13 17:57:09;;;;;;;28.00;26.20;;;;;;;10.61;86.32;102446.13;10529585;28;20213;-83
2021/12/13 18:02:15;;;;;;;27.57;25.43;;;;;;;10.17;86.61;102374.19;10533361;28;20244;-83
2021/12/13 18:07:28;;;;;;;30.40;28.20;;;;;;;9.96;86.56;102364.44;10532203;28;20206;-83
2021/12/13 18:12:33;;;;;;;26.80;25.10;;;;;;;10.36;86.33;102435.69;10535757;28;20216;-83
2021/12/13 18:17:42;;;;;;;27.40;25.70;;;;;;;10.60;86.89;102463.06;10547807;28;20292;-82
2021/12/13 18:22:49;;;;;;;27.90;25.90;;;;;;;10.55;86.38;102456.19;10535295;28;20229;-83
2021/12/13 18:27:54;;;;;;;27.73;25.63;;;;;;;10.59;86.73;102464.03;10533414;28;20213;-83
2021/12/13 18:33:01;;;;;;;26.83;25.10;;;;;;;10.59;86.75;102471.19;10543528;28;20226;-83
2021/12/13 18:38:06;;;;;;;28.77;26.87;;;;;;;10.54;86.49;102466.03;10545597;28;20230;-83
2021/12/13 18:43:12;;;;;;;28.17;26.23;;;;;;;10.30;86.72;102428.81;10536646;28;20621;-82
2021/12/13 18:48:20;;;;;;;29.23;27.23;;;;;;;10.33;86.49;102420.63;10529412;28;20230;-82
2021/12/13 18:53:25;;;;;;;30.93;28.67;;;;;;;10.61;86.43;102470.16;10535840;28;20230;-83
2021/12/13 18:58:35;;;;;;;29.10;27.20;;;;;;;10.58;86.58;102480.97;10454510;27;20245;-83
2021/12/13 19:03:42;;;;;;;29.17;27.27;;;;;;;9.28;85.59;102284.69;10546864;28;20226;-82
2021/12/13 19:08:47;;;;;;;30.53;28.63;;;;;;;10.52;86.53;102481.25;10525328;28;20207;-82
2021/12/13 19:13:53;;;;;;;29.20;27.23;;;;;;;10.26;86.35;102443.19;10529196;28;20596;-84
2021/12/13 19:18:59;;;;;;;29.47;27.57;;;;;;;10.45;86.57;102471.78;10530072;28;20216;-83
2021/12/13 19:24:11;;;;;;;30.57;28.50;;;;;;;10.37;86.49;102464.09;10531010;28;20308;-82
2021/12/13 19:29:25;;;;;;;30.87;28.57;;;;;;;10.54;86.52;102497.22;10530129;28;20258;-82
2021/12/13 19:34:31;;;;;;;30.80;28.70;;;;;;;10.11;86.32;102425.16;10527701;28;20231;-83
2021/12/13 19:39:46;;;;;;;30.40;28.33;;;;;;;10.56;86.54;102490.00;10523487;28;20247;-82
2021/12/13 19:44:51;;;;;;;31.10;28.83;;;;;;;10.55;86.51;102491.81;10531614;28;20623;-83
2021/12/13 19:49:56;;;;;;;29.30;27.27;;;;;;;10.55;86.56;102474.91;10524831;28;20209;-82
2021/12/13 19:55:07;;;;;;;29.27;27.47;;;;;;;10.35;86.45;102446.44;10520432;28;20216;-83
2021/12/13 20:00:19;;;;;;;30.43;28.27;;;;;;;10.31;86.53;102454.56;10528706;28;20237;-86
2021/12/13 20:05:27;;;;;;;30.60;28.40;;;;;;;10.25;86.63;102425.44;10521163;28;20218;-83
2021/12/13 20:10:32;;;;;;;30.13;28.13;;;;;;;10.47;86.38;102465.44;10518147;28;20210;-83
2021/12/13 20:15:40;;;;;;;29.63;27.53;;;;;;;10.45;86.14;102470.00;10522364;28;20210;-83
2021/12/13 20:20:46;;;;;;;30.47;28.57;;;;;;;10.21;86.27;102430.97;10519312;28;20550;-82
2021/12/13 20:25:54;;;;;;;29.87;27.97;;;;;;;9.88;85.78;102384.34;10529599;28;20234;-83
2021/12/13 20:31:00;;;;;;;29.23;27.30;;;;;;;10.32;86.17;102442.06;10525538;28;20230;-83
2021/12/13 20:36:08;;;;;;;29.00;27.10;;;;;;;10.40;86.62;102458.63;10516670;28;20895;-82
2021/12/13 20:41:15;;;;;;;29.77;27.87;;;;;;;10.38;86.13;102452.50;10518452;28;20712;-83
2021/12/13 20:46:24;;;;;;;30.13;28.13;;;;;;;10.38;86.26;102454.28;10521334;28;20237;-83
2021/12/13 20:51:30;;;;;;;28.43;26.47;;;;;;;10.24;85.77;102444.19;10531818;28;20209;-83
2021/12/13 20:56:37;;;;;;;28.63;26.93;;;;;;;10.24;85.81;102450.41;10530616;28;20681;-82
2021/12/13 21:01:41;;;;;;;29.23;27.40;;;;;;;10.36;86.43;102464.16;10520871;28;20233;-83
2021/12/13 21:06:48;;;;;;;29.93;28.03;;;;;;;10.05;86.08;102406.75;10515776;28;20222;-83
2021/12/13 21:11:54;;;;;;;30.90;28.90;;;;;;;9.98;86.38;102399.94;10525591;28;20210;-82
2021/12/13 21:17:00;;;;;;;30.57;28.67;;;;;;;10.33;86.65;102457.19;10541904;28;20222;-82
2021/12/13 21:22:12;;;;;;;28.23;26.53;;;;;;;10.36;86.85;102454.38;10541334;28;20242;-83
2021/12/13 21:27:18;;;;;;;30.77;28.77;;;;;;;10.35;86.56;102463.31;10533212;28;20853;-82
2021/12/13 21:32:24;;;;;;;31.17;29.07;;;;;;;10.33;86.14;102475.88;10528180;28;20229;-83
2021/12/13 21:42:53;;;;;;;30.20;28.20;;;;;;;10.34;87.10;102472.28;10530663;28;20246;-83
2021/12/13 21:47:59;;;;;;;30.60;28.53;;;;;;;10.07;87.06;102436.94;10524505;28;20217;-82
2021/12/13 21:53:06;;;;;;;30.27;28.10;;;;;;;10.36;86.94;102497.13;10525127;28;20209;-83
2021/12/13 21:58:11;;;;;;;30.07;28.07;;;;;;;10.38;87.54;102494.34;10531821;28;20209;-83
2021/12/13 22:03:17;;;;;;;29.77;27.97;;;;;;;10.39;87.60;102498.78;10526861;28;20386;-82
2021/12/13 22:08:24;;;;;;;31.80;29.90;;;;;;;9.27;87.65;102309.66;10530437;28;20206;-82
2021/12/13 22:13:31;;;;;;;31.37;29.20;;;;;;;10.35;87.84;102481.16;10534108;28;20215;-82
2021/12/13 22:18:38;;;;;;;32.73;30.73;;;;;;;10.16;87.64;102449.00;10532152;28;20207;-83
2021/12/13 22:23:48;;;;;;;33.37;31.07;;;;;;;10.38;87.98;102472.97;10529542;28;21191;-82
2021/12/13 22:28:51;;;;;;;34.03;31.83;;;;;;;10.36;88.01;102481.09;10543958;28;20225;-82
2021/12/13 22:33:55;;;;;;;33.27;31.17;;;;;;;10.01;88.03;102442.53;10557181;28;20309;-83
2021/12/13 22:38:59;;;;;;;35.03;32.73;;;;;;;10.19;88.34;102476.44;10528896;28;20225;-82
2021/12/13 22:44:06;;;;;;;34.50;32.30;;;;;;;10.29;88.34;102487.59;10527558;28;20327;-83
2021/12/13 22:49:11;;;;;;;36.30;33.73;;;;;;;10.27;88.35;102485.00;10524942;28;20206;-83
2021/12/13 22:54:15;;;;;;;35.47;33.27;;;;;;;9.53;88.43;102360.06;10536004;28;20203;-83
2021/12/13 22:59:21;;;;;;;37.30;34.77;;;;;;;9.96;88.42;102409.84;10536590;28;20658;-83
2021/12/13 23:04:28;;;;;;;35.73;33.53;;;;;;;10.26;88.56;102461.88;10530077;28;20325;-83
2021/12/13 23:09:44;;;;;;;36.17;33.90;;;;;;;10.23;88.72;102451.34;10531694;28;20648;-81